sensor_id;sensor_type;location;lat;lon;timestamp;P1;durP1;ratioP1;P2;durP2;ratioP2
75847;SDS011;65750;47.540;19.090;2023-06-10T00:02:17;5.03;;;3.40;;
75847;SDS011;65750;47.540;19.090;2023-06-10T00:04:45;5.53;;;3.33;;
75847;SDS011;65750;47.540;19.090;2023-06-10T00:07:12;4.30;;;3.05;;
75847;SDS011;65750;47.540;19.090;2023-06-10T00:09:39;4.53;;;3.62;;
75847;SDS011;65750;47.540;19.090;2023-06-10T00:12:06;4.40;;;3.20;;
75847;SDS011;65750;47.540;19.090;2023-06-10T00:14:36;4.03;;;3.20;;
75847;SDS011;65750;47.540;19.090;2023-06-10T00:17:05;4.18;;;3.03;;
75847;SDS011;65750;47.540;19.090;2023-06-10T00:19:37;4.43;;;3.30;;
75847;SDS011;65750;47.540;19.090;2023-06-10T00:22:06;4.20;;;3.50;;
75847;SDS011;65750;47.540;19.090;2023-06-10T00:24:34;4.43;;;3.30;;
75847;SDS011;65750;47.540;19.090;2023-06-10T00:27:01;4.40;;;3.57;;
75847;SDS011;65750;47.540;19.090;2023-06-10T00:29:28;5.47;;;3.10;;
75847;SDS011;65750;47.540;19.090;2023-06-10T00:31:56;4.47;;;3.37;;
75847;SDS011;65750;47.540;19.090;2023-06-10T00:34:23;4.18;;;3.30;;
75847;SDS011;65750;47.540;19.090;2023-06-10T00:36:52;5.57;;;3.50;;
75847;SDS011;65750;47.540;19.090;2023-06-10T00:39:19;4.63;;;3.33;;
75847;SDS011;65750;47.540;19.090;2023-06-10T00:41:46;4.22;;;3.28;;
75847;SDS011;65750;47.540;19.090;2023-06-10T00:44:14;4.47;;;2.70;;
75847;SDS011;65750;47.540;19.090;2023-06-10T00:46:41;4.00;;;2.92;;
75847;SDS011;65750;47.540;19.090;2023-06-10T00:49:09;3.70;;;3.10;;
75847;SDS011;65750;47.540;19.090;2023-06-10T00:51:36;4.90;;;3.10;;
75847;SDS011;65750;47.540;19.090;2023-06-10T00:54:06;4.20;;;3.10;;
75847;SDS011;65750;47.540;19.090;2023-06-10T00:56:34;4.37;;;3.45;;
75847;SDS011;65750;47.540;19.090;2023-06-10T00:59:01;4.22;;;3.20;;
75847;SDS011;65750;47.540;19.090;2023-06-10T01:01:29;4.00;;;2.95;;
75847;SDS011;65750;47.540;19.090;2023-06-10T01:03:56;4.70;;;3.23;;
75847;SDS011;65750;47.540;19.090;2023-06-10T01:06:26;5.35;;;3.10;;
75847;SDS011;65750;47.540;19.090;2023-06-10T01:09:01;4.47;;;3.08;;
75847;SDS011;65750;47.540;19.090;2023-06-10T01:11:34;4.30;;;3.25;;
75847;SDS011;65750;47.540;19.090;2023-06-10T01:14:03;3.87;;;3.00;;
75847;SDS011;65750;47.540;19.090;2023-06-10T01:16:33;3.90;;;2.90;;
75847;SDS011;65750;47.540;19.090;2023-06-10T01:19:01;3.65;;;2.80;;
75847;SDS011;65750;47.540;19.090;2023-06-10T01:21:30;3.92;;;2.70;;
75847;SDS011;65750;47.540;19.090;2023-06-10T01:23:57;3.55;;;2.75;;
75847;SDS011;65750;47.540;19.090;2023-06-10T01:26:25;4.12;;;3.12;;
75847;SDS011;65750;47.540;19.090;2023-06-10T01:28:57;4.27;;;3.23;;
75847;SDS011;65750;47.540;19.090;2023-06-10T01:31:29;3.70;;;2.90;;
75847;SDS011;65750;47.540;19.090;2023-06-10T01:34:01;4.80;;;2.83;;
75847;SDS011;65750;47.540;19.090;2023-06-10T01:36:31;3.92;;;3.00;;
75847;SDS011;65750;47.540;19.090;2023-06-10T01:38:59;3.90;;;2.80;;
75847;SDS011;65750;47.540;19.090;2023-06-10T01:41:26;3.70;;;2.70;;
75847;SDS011;65750;47.540;19.090;2023-06-10T01:43:54;3.75;;;2.97;;
75847;SDS011;65750;47.540;19.090;2023-06-10T01:46:21;3.62;;;2.80;;
75847;SDS011;65750;47.540;19.090;2023-06-10T01:48:48;4.47;;;2.95;;
75847;SDS011;65750;47.540;19.090;2023-06-10T01:51:15;3.70;;;3.10;;
75847;SDS011;65750;47.540;19.090;2023-06-10T01:53:44;4.30;;;3.00;;
75847;SDS011;65750;47.540;19.090;2023-06-10T01:56:11;3.72;;;2.90;;
75847;SDS011;65750;47.540;19.090;2023-06-10T01:58:42;3.87;;;2.97;;
75847;SDS011;65750;47.540;19.090;2023-06-10T02:01:09;4.25;;;2.80;;
75847;SDS011;65750;47.540;19.090;2023-06-10T02:03:37;4.18;;;2.80;;
75847;SDS011;65750;47.540;19.090;2023-06-10T02:06:04;3.50;;;2.70;;
75847;SDS011;65750;47.540;19.090;2023-06-10T02:08:32;4.25;;;2.62;;
75847;SDS011;65750;47.540;19.090;2023-06-10T02:11:01;3.50;;;2.87;;
75847;SDS011;65750;47.540;19.090;2023-06-10T02:13:28;3.60;;;3.00;;
75847;SDS011;65750;47.540;19.090;2023-06-10T02:15:56;4.07;;;3.22;;
75847;SDS011;65750;47.540;19.090;2023-06-10T02:18:25;3.40;;;2.77;;
75847;SDS011;65750;47.540;19.090;2023-06-10T02:20:53;4.45;;;2.90;;
75847;SDS011;65750;47.540;19.090;2023-06-10T02:23:21;3.10;;;2.70;;
75847;SDS011;65750;47.540;19.090;2023-06-10T02:25:49;3.37;;;2.70;;
75847;SDS011;65750;47.540;19.090;2023-06-10T02:28:18;3.60;;;3.10;;
75847;SDS011;65750;47.540;19.090;2023-06-10T02:30:45;3.00;;;2.43;;
75847;SDS011;65750;47.540;19.090;2023-06-10T02:33:13;3.33;;;2.70;;
75847;SDS011;65750;47.540;19.090;2023-06-10T02:35:40;3.60;;;2.70;;
75847;SDS011;65750;47.540;19.090;2023-06-10T02:38:08;4.28;;;2.62;;
75847;SDS011;65750;47.540;19.090;2023-06-10T02:40:35;3.45;;;2.37;;
75847;SDS011;65750;47.540;19.090;2023-06-10T02:43:02;3.30;;;2.70;;
75847;SDS011;65750;47.540;19.090;2023-06-10T02:45:32;3.78;;;3.00;;
75847;SDS011;65750;47.540;19.090;2023-06-10T02:47:59;3.20;;;2.67;;
75847;SDS011;65750;47.540;19.090;2023-06-10T02:50:26;3.42;;;2.83;;
75847;SDS011;65750;47.540;19.090;2023-06-10T02:52:55;4.00;;;2.80;;
75847;SDS011;65750;47.540;19.090;2023-06-10T02:55:24;3.03;;;2.33;;
75847;SDS011;65750;47.540;19.090;2023-06-10T02:57:52;3.55;;;2.97;;
75847;SDS011;65750;47.540;19.090;2023-06-10T03:00:19;3.10;;;2.42;;
75847;SDS011;65750;47.540;19.090;2023-06-10T03:02:48;3.40;;;2.65;;
75847;SDS011;65750;47.540;19.090;2023-06-10T03:05:16;3.95;;;2.70;;
75847;SDS011;65750;47.540;19.090;2023-06-10T03:07:44;3.17;;;2.80;;
75847;SDS011;65750;47.540;19.090;2023-06-10T03:10:14;3.50;;;2.83;;
75847;SDS011;65750;47.540;19.090;2023-06-10T03:12:41;3.55;;;2.67;;
75847;SDS011;65750;47.540;19.090;2023-06-10T03:15:10;3.03;;;2.60;;
75847;SDS011;65750;47.540;19.090;2023-06-10T03:17:37;3.80;;;2.85;;
75847;SDS011;65750;47.540;19.090;2023-06-10T03:20:06;3.70;;;3.07;;
75847;SDS011;65750;47.540;19.090;2023-06-10T03:22:36;4.35;;;2.90;;
75847;SDS011;65750;47.540;19.090;2023-06-10T03:25:05;3.20;;;2.67;;
75847;SDS011;65750;47.540;19.090;2023-06-10T03:27:41;2.75;;;2.33;;
75847;SDS011;65750;47.540;19.090;2023-06-10T03:30:08;3.22;;;2.83;;
75847;SDS011;65750;47.540;19.090;2023-06-10T03:32:37;3.53;;;2.80;;
75847;SDS011;65750;47.540;19.090;2023-06-10T03:35:06;3.20;;;2.80;;
75847;SDS011;65750;47.540;19.090;2023-06-10T03:37:35;3.58;;;2.60;;
75847;SDS011;65750;47.540;19.090;2023-06-10T03:40:03;3.87;;;2.80;;
75847;SDS011;65750;47.540;19.090;2023-06-10T03:42:32;3.12;;;2.45;;
75847;SDS011;65750;47.540;19.090;2023-06-10T03:44:59;3.53;;;2.40;;
75847;SDS011;65750;47.540;19.090;2023-06-10T03:47:32;3.50;;;2.80;;
75847;SDS011;65750;47.540;19.090;2023-06-10T03:50:00;2.92;;;2.42;;
75847;SDS011;65750;47.540;19.090;2023-06-10T03:52:30;3.20;;;2.55;;
75847;SDS011;65750;47.540;19.090;2023-06-10T03:54:57;3.33;;;2.58;;
75847;SDS011;65750;47.540;19.090;2023-06-10T03:57:25;3.33;;;2.90;;
75847;SDS011;65750;47.540;19.090;2023-06-10T03:59:53;3.20;;;2.50;;
75847;SDS011;65750;47.540;19.090;2023-06-10T04:02:20;3.42;;;2.55;;
75847;SDS011;65750;47.540;19.090;2023-06-10T04:04:48;3.70;;;2.83;;
75847;SDS011;65750;47.540;19.090;2023-06-10T04:07:16;3.05;;;2.47;;
75847;SDS011;65750;47.540;19.090;2023-06-10T04:09:47;3.27;;;2.57;;
75847;SDS011;65750;47.540;19.090;2023-06-10T04:12:16;3.78;;;2.58;;
75847;SDS011;65750;47.540;19.090;2023-06-10T04:14:44;3.35;;;2.55;;
75847;SDS011;65750;47.540;19.090;2023-06-10T04:17:11;2.97;;;2.65;;
75847;SDS011;65750;47.540;19.090;2023-06-10T04:19:38;3.25;;;2.50;;
75847;SDS011;65750;47.540;19.090;2023-06-10T04:22:06;3.37;;;2.33;;
75847;SDS011;65750;47.540;19.090;2023-06-10T04:24:33;4.37;;;2.70;;
75847;SDS011;65750;47.540;19.090;2023-06-10T04:27:03;3.40;;;2.80;;
75847;SDS011;65750;47.540;19.090;2023-06-10T04:29:30;3.20;;;2.60;;
75847;SDS011;65750;47.540;19.090;2023-06-10T04:31:58;2.97;;;2.40;;
75847;SDS011;65750;47.540;19.090;2023-06-10T04:34:26;3.10;;;2.80;;
75847;SDS011;65750;47.540;19.090;2023-06-10T04:36:53;3.20;;;2.75;;
75847;SDS011;65750;47.540;19.090;2023-06-10T04:39:20;3.22;;;2.75;;
75847;SDS011;65750;47.540;19.090;2023-06-10T04:41:49;3.28;;;2.70;;
75847;SDS011;65750;47.540;19.090;2023-06-10T04:44:18;3.10;;;2.50;;
75847;SDS011;65750;47.540;19.090;2023-06-10T04:46:47;3.70;;;2.90;;
75847;SDS011;65750;47.540;19.090;2023-06-10T04:49:14;3.55;;;2.97;;
75847;SDS011;65750;47.540;19.090;2023-06-10T04:51:41;4.40;;;3.05;;
75847;SDS011;65750;47.540;19.090;2023-06-10T04:54:08;3.45;;;2.65;;
75847;SDS011;65750;47.540;19.090;2023-06-10T04:56:35;4.70;;;2.90;;
75847;SDS011;65750;47.540;19.090;2023-06-10T04:59:02;3.30;;;2.83;;
75847;SDS011;65750;47.540;19.090;2023-06-10T05:01:31;3.10;;;2.75;;
75847;SDS011;65750;47.540;19.090;2023-06-10T05:03:58;3.33;;;2.78;;
75847;SDS011;65750;47.540;19.090;2023-06-10T05:06:25;4.22;;;2.75;;
75847;SDS011;65750;47.540;19.090;2023-06-10T05:08:52;3.35;;;2.95;;
75847;SDS011;65750;47.540;19.090;2023-06-10T05:11:20;5.23;;;2.93;;
75847;SDS011;65750;47.540;19.090;2023-06-10T05:13:47;4.50;;;3.00;;
75847;SDS011;65750;47.540;19.090;2023-06-10T05:16:14;4.00;;;2.97;;
75847;SDS011;65750;47.540;19.090;2023-06-10T05:18:43;3.30;;;2.87;;
75847;SDS011;65750;47.540;19.090;2023-06-10T05:21:10;3.20;;;2.80;;
75847;SDS011;65750;47.540;19.090;2023-06-10T05:23:38;5.60;;;2.90;;
75847;SDS011;65750;47.540;19.090;2023-06-10T05:26:05;4.25;;;3.00;;
75847;SDS011;65750;47.540;19.090;2023-06-10T05:28:32;3.90;;;3.10;;
75847;SDS011;65750;47.540;19.090;2023-06-10T05:30:59;3.22;;;2.40;;
75847;SDS011;65750;47.540;19.090;2023-06-10T05:33:26;5.25;;;2.85;;
75847;SDS011;65750;47.540;19.090;2023-06-10T05:35:55;4.53;;;2.70;;
75847;SDS011;65750;47.540;19.090;2023-06-10T05:38:21;3.72;;;2.70;;
75847;SDS011;65750;47.540;19.090;2023-06-10T05:40:49;4.35;;;2.70;;
75847;SDS011;65750;47.540;19.090;2023-06-10T05:43:16;4.22;;;2.67;;
75847;SDS011;65750;47.540;19.090;2023-06-10T05:45:43;4.57;;;2.60;;
75847;SDS011;65750;47.540;19.090;2023-06-10T05:48:10;3.97;;;3.13;;
75847;SDS011;65750;47.540;19.090;2023-06-10T05:50:37;4.55;;;3.22;;
75847;SDS011;65750;47.540;19.090;2023-06-10T05:53:06;6.47;;;2.87;;
75847;SDS011;65750;47.540;19.090;2023-06-10T05:55:40;4.00;;;2.85;;
75847;SDS011;65750;47.540;19.090;2023-06-10T05:58:08;4.43;;;2.87;;
75847;SDS011;65750;47.540;19.090;2023-06-10T06:00:34;4.27;;;2.83;;
75847;SDS011;65750;47.540;19.090;2023-06-10T06:03:02;3.87;;;3.00;;
75847;SDS011;65750;47.540;19.090;2023-06-10T06:05:29;5.22;;;2.90;;
75847;SDS011;65750;47.540;19.090;2023-06-10T06:08:00;4.70;;;2.80;;
75847;SDS011;65750;47.540;19.090;2023-06-10T06:10:29;3.40;;;2.70;;
75847;SDS011;65750;47.540;19.090;2023-06-10T06:12:56;4.80;;;2.83;;
75847;SDS011;65750;47.540;19.090;2023-06-10T06:15:24;4.28;;;2.72;;
75847;SDS011;65750;47.540;19.090;2023-06-10T06:17:52;4.00;;;2.58;;
75847;SDS011;65750;47.540;19.090;2023-06-10T06:20:19;4.65;;;2.72;;
75847;SDS011;65750;47.540;19.090;2023-06-10T06:22:46;4.12;;;2.80;;
75847;SDS011;65750;47.540;19.090;2023-06-10T06:25:14;4.63;;;2.73;;
75847;SDS011;65750;47.540;19.090;2023-06-10T06:27:43;3.97;;;2.80;;
75847;SDS011;65750;47.540;19.090;2023-06-10T06:30:10;4.20;;;2.80;;
75847;SDS011;65750;47.540;19.090;2023-06-10T06:32:38;3.55;;;3.05;;
75847;SDS011;65750;47.540;19.090;2023-06-10T06:35:05;6.65;;;3.75;;
75847;SDS011;65750;47.540;19.090;2023-06-10T06:37:34;4.33;;;3.30;;
75847;SDS011;65750;47.540;19.090;2023-06-10T06:40:03;5.75;;;3.65;;
75847;SDS011;65750;47.540;19.090;2023-06-10T06:42:31;4.35;;;2.92;;
75847;SDS011;65750;47.540;19.090;2023-06-10T06:45:00;5.10;;;3.47;;
75847;SDS011;65750;47.540;19.090;2023-06-10T06:47:28;5.82;;;3.87;;
75847;SDS011;65750;47.540;19.090;2023-06-10T06:49:55;3.83;;;3.43;;
75847;SDS011;65750;47.540;19.090;2023-06-10T06:52:22;4.65;;;3.10;;
75847;SDS011;65750;47.540;19.090;2023-06-10T06:54:49;5.10;;;3.83;;
75847;SDS011;65750;47.540;19.090;2023-06-10T06:57:16;6.55;;;3.83;;
75847;SDS011;65750;47.540;19.090;2023-06-10T06:59:43;4.45;;;3.95;;
75847;SDS011;65750;47.540;19.090;2023-06-10T07:02:12;5.97;;;3.70;;
75847;SDS011;65750;47.540;19.090;2023-06-10T07:04:39;4.62;;;3.60;;
75847;SDS011;65750;47.540;19.090;2023-06-10T07:07:07;5.07;;;3.67;;
75847;SDS011;65750;47.540;19.090;2023-06-10T07:09:35;6.72;;;3.42;;
75847;SDS011;65750;47.540;19.090;2023-06-10T07:12:04;4.72;;;3.40;;
75847;SDS011;65750;47.540;19.090;2023-06-10T07:14:32;5.07;;;3.70;;
75847;SDS011;65750;47.540;19.090;2023-06-10T07:16:59;4.37;;;3.90;;
75847;SDS011;65750;47.540;19.090;2023-06-10T07:19:27;5.00;;;3.50;;
75847;SDS011;65750;47.540;19.090;2023-06-10T07:21:55;4.47;;;3.92;;
75847;SDS011;65750;47.540;19.090;2023-06-10T07:24:22;5.97;;;3.87;;
75847;SDS011;65750;47.540;19.090;2023-06-10T07:26:49;4.40;;;3.73;;
75847;SDS011;65750;47.540;19.090;2023-06-10T07:29:16;5.87;;;3.67;;
75847;SDS011;65750;47.540;19.090;2023-06-10T07:31:44;7.47;;;4.05;;
75847;SDS011;65750;47.540;19.090;2023-06-10T07:34:11;6.05;;;3.92;;
75847;SDS011;65750;47.540;19.090;2023-06-10T07:36:39;4.78;;;3.70;;
75847;SDS011;65750;47.540;19.090;2023-06-10T07:39:07;5.53;;;3.70;;
75847;SDS011;65750;47.540;19.090;2023-06-10T07:41:34;5.70;;;4.15;;
75847;SDS011;65750;47.540;19.090;2023-06-10T07:44:01;4.60;;;3.53;;
75847;SDS011;65750;47.540;19.090;2023-06-10T07:46:28;5.47;;;4.32;;
75847;SDS011;65750;47.540;19.090;2023-06-10T07:48:56;4.55;;;3.70;;
75847;SDS011;65750;47.540;19.090;2023-06-10T07:51:23;4.40;;;3.90;;
75847;SDS011;65750;47.540;19.090;2023-06-10T07:53:51;5.03;;;4.10;;
75847;SDS011;65750;47.540;19.090;2023-06-10T07:56:18;5.57;;;3.85;;
75847;SDS011;65750;47.540;19.090;2023-06-10T07:58:47;5.45;;;3.90;;
75847;SDS011;65750;47.540;19.090;2023-06-10T08:01:14;6.90;;;4.50;;
75847;SDS011;65750;47.540;19.090;2023-06-10T08:03:42;6.77;;;4.27;;
75847;SDS011;65750;47.540;19.090;2023-06-10T08:06:09;5.37;;;4.15;;
75847;SDS011;65750;47.540;19.090;2023-06-10T08:08:36;6.07;;;4.43;;
75847;SDS011;65750;47.540;19.090;2023-06-10T08:11:08;5.40;;;4.45;;
75847;SDS011;65750;47.540;19.090;2023-06-10T08:13:37;5.90;;;4.15;;
75847;SDS011;65750;47.540;19.090;2023-06-10T08:16:05;7.47;;;4.77;;
75847;SDS011;65750;47.540;19.090;2023-06-10T08:18:33;5.72;;;4.65;;
75847;SDS011;65750;47.540;19.090;2023-06-10T08:21:00;5.55;;;4.62;;
75847;SDS011;65750;47.540;19.090;2023-06-10T08:23:27;5.80;;;5.10;;
75847;SDS011;65750;47.540;19.090;2023-06-10T08:25:54;7.05;;;4.60;;
75847;SDS011;65750;47.540;19.090;2023-06-10T08:28:23;6.30;;;4.93;;
75847;SDS011;65750;47.540;19.090;2023-06-10T08:30:50;8.38;;;4.87;;
75847;SDS011;65750;47.540;19.090;2023-06-10T08:33:17;5.75;;;5.20;;
75847;SDS011;65750;47.540;19.090;2023-06-10T08:35:45;5.97;;;4.75;;
75847;SDS011;65750;47.540;19.090;2023-06-10T08:38:12;7.90;;;4.78;;
75847;SDS011;65750;47.540;19.090;2023-06-10T08:40:40;6.57;;;5.40;;
75847;SDS011;65750;47.540;19.090;2023-06-10T08:43:07;7.47;;;5.35;;
75847;SDS011;65750;47.540;19.090;2023-06-10T08:45:36;14.68;;;6.25;;
75847;SDS011;65750;47.540;19.090;2023-06-10T08:48:04;7.20;;;5.53;;
75847;SDS011;65750;47.540;19.090;2023-06-10T08:50:33;6.90;;;5.70;;
75847;SDS011;65750;47.540;19.090;2023-06-10T08:53:01;9.60;;;6.40;;
75847;SDS011;65750;47.540;19.090;2023-06-10T08:55:32;10.00;;;5.80;;
75847;SDS011;65750;47.540;19.090;2023-06-10T08:57:59;8.00;;;5.72;;
75847;SDS011;65750;47.540;19.090;2023-06-10T09:00:27;9.75;;;6.03;;
75847;SDS011;65750;47.540;19.090;2023-06-10T09:02:57;9.38;;;6.30;;
75847;SDS011;65750;47.540;19.090;2023-06-10T09:05:25;13.23;;;7.00;;
75847;SDS011;65750;47.540;19.090;2023-06-10T09:07:54;11.15;;;6.40;;
75847;SDS011;65750;47.540;19.090;2023-06-10T09:10:23;15.93;;;7.20;;
75847;SDS011;65750;47.540;19.090;2023-06-10T09:12:51;16.62;;;7.95;;
75847;SDS011;65750;47.540;19.090;2023-06-10T09:15:18;18.52;;;7.97;;
75847;SDS011;65750;47.540;19.090;2023-06-10T09:17:45;23.97;;;7.87;;
75847;SDS011;65750;47.540;19.090;2023-06-10T09:20:14;14.70;;;8.02;;
75847;SDS011;65750;47.540;19.090;2023-06-10T09:22:42;16.02;;;8.18;;
75847;SDS011;65750;47.540;19.090;2023-06-10T09:25:10;14.75;;;8.05;;
75847;SDS011;65750;47.540;19.090;2023-06-10T09:27:43;16.65;;;8.02;;
75847;SDS011;65750;47.540;19.090;2023-06-10T09:30:23;16.60;;;9.53;;
75847;SDS011;65750;47.540;19.090;2023-06-10T09:32:52;17.65;;;9.45;;
75847;SDS011;65750;47.540;19.090;2023-06-10T09:35:23;17.87;;;10.43;;
75847;SDS011;65750;47.540;19.090;2023-06-10T09:37:51;16.27;;;9.13;;
75847;SDS011;65750;47.540;19.090;2023-06-10T09:40:19;21.85;;;9.80;;
75847;SDS011;65750;47.540;19.090;2023-06-10T09:42:46;14.33;;;8.90;;
75847;SDS011;65750;47.540;19.090;2023-06-10T09:45:19;17.08;;;9.57;;
75847;SDS011;65750;47.540;19.090;2023-06-10T09:47:46;17.85;;;9.75;;
75847;SDS011;65750;47.540;19.090;2023-06-10T09:50:13;17.40;;;10.93;;
75847;SDS011;65750;47.540;19.090;2023-06-10T09:52:42;16.30;;;10.68;;
75847;SDS011;65750;47.540;19.090;2023-06-10T09:55:09;16.97;;;10.30;;
75847;SDS011;65750;47.540;19.090;2023-06-10T09:57:37;22.67;;;10.50;;
75847;SDS011;65750;47.540;19.090;2023-06-10T10:00:05;15.10;;;11.00;;
75847;SDS011;65750;47.540;19.090;2023-06-10T10:02:43;14.93;;;9.23;;
75847;SDS011;65750;47.540;19.090;2023-06-10T10:05:12;16.35;;;10.70;;
75847;SDS011;65750;47.540;19.090;2023-06-10T10:07:42;14.97;;;9.23;;
75847;SDS011;65750;47.540;19.090;2023-06-10T10:10:10;14.50;;;8.82;;
75847;SDS011;65750;47.540;19.090;2023-06-10T10:12:39;17.73;;;9.82;;
75847;SDS011;65750;47.540;19.090;2023-06-10T10:15:06;17.62;;;10.27;;
75847;SDS011;65750;47.540;19.090;2023-06-10T10:17:35;15.82;;;9.63;;
75847;SDS011;65750;47.540;19.090;2023-06-10T10:20:07;14.03;;;9.53;;
75847;SDS011;65750;47.540;19.090;2023-06-10T10:22:36;17.30;;;9.75;;
75847;SDS011;65750;47.540;19.090;2023-06-10T10:25:07;14.65;;;9.55;;
75847;SDS011;65750;47.540;19.090;2023-06-10T10:27:40;14.90;;;9.48;;
75847;SDS011;65750;47.540;19.090;2023-06-10T10:30:09;13.57;;;9.15;;
75847;SDS011;65750;47.540;19.090;2023-06-10T10:32:38;14.07;;;9.33;;
75847;SDS011;65750;47.540;19.090;2023-06-10T10:35:08;14.48;;;9.27;;
75847;SDS011;65750;47.540;19.090;2023-06-10T10:37:37;14.57;;;9.40;;
75847;SDS011;65750;47.540;19.090;2023-06-10T10:40:07;15.60;;;9.25;;
75847;SDS011;65750;47.540;19.090;2023-06-10T10:42:35;14.65;;;10.00;;
75847;SDS011;65750;47.540;19.090;2023-06-10T10:45:03;16.13;;;10.17;;
75847;SDS011;65750;47.540;19.090;2023-06-10T10:47:31;14.25;;;9.02;;
75847;SDS011;65750;47.540;19.090;2023-06-10T10:50:00;13.55;;;9.65;;
75847;SDS011;65750;47.540;19.090;2023-06-10T10:52:46;13.95;;;9.88;;
75847;SDS011;65750;47.540;19.090;2023-06-10T10:55:19;12.88;;;10.25;;
75847;SDS011;65750;47.540;19.090;2023-06-10T10:57:53;13.97;;;9.73;;
75847;SDS011;65750;47.540;19.090;2023-06-10T11:00:24;14.57;;;9.80;;
75847;SDS011;65750;47.540;19.090;2023-06-10T11:02:54;14.73;;;9.85;;
75847;SDS011;65750;47.540;19.090;2023-06-10T11:05:31;14.07;;;9.45;;
75847;SDS011;65750;47.540;19.090;2023-06-10T11:08:02;13.55;;;9.63;;
75847;SDS011;65750;47.540;19.090;2023-06-10T11:10:31;12.30;;;9.87;;
75847;SDS011;65750;47.540;19.090;2023-06-10T11:12:59;14.20;;;8.95;;
75847;SDS011;65750;47.540;19.090;2023-06-10T11:15:28;13.68;;;9.88;;
75847;SDS011;65750;47.540;19.090;2023-06-10T11:18:08;12.82;;;9.57;;
75847;SDS011;65750;47.540;19.090;2023-06-10T11:20:50;13.73;;;9.38;;
75847;SDS011;65750;47.540;19.090;2023-06-10T11:23:29;16.20;;;9.60;;
75847;SDS011;65750;47.540;19.090;2023-06-10T11:26:11;13.45;;;9.50;;
75847;SDS011;65750;47.540;19.090;2023-06-10T11:29:00;12.73;;;9.40;;
75847;SDS011;65750;47.540;19.090;2023-06-10T11:31:29;13.23;;;10.07;;
75847;SDS011;65750;47.540;19.090;2023-06-10T11:33:57;13.65;;;9.85;;
75847;SDS011;65750;47.540;19.090;2023-06-10T11:36:25;12.13;;;9.37;;
75847;SDS011;65750;47.540;19.090;2023-06-10T11:38:53;13.50;;;9.73;;
75847;SDS011;65750;47.540;19.090;2023-06-10T11:41:24;14.15;;;9.77;;
75847;SDS011;65750;47.540;19.090;2023-06-10T11:43:52;12.98;;;9.35;;
75847;SDS011;65750;47.540;19.090;2023-06-10T11:46:21;11.55;;;9.23;;
75847;SDS011;65750;47.540;19.090;2023-06-10T11:48:48;12.13;;;9.13;;
75847;SDS011;65750;47.540;19.090;2023-06-10T11:51:16;12.02;;;9.60;;
75847;SDS011;65750;47.540;19.090;2023-06-10T11:53:43;11.45;;;8.88;;
75847;SDS011;65750;47.540;19.090;2023-06-10T11:56:11;12.30;;;9.23;;
75847;SDS011;65750;47.540;19.090;2023-06-10T11:58:40;11.68;;;9.07;;
75847;SDS011;65750;47.540;19.090;2023-06-10T12:01:10;12.87;;;9.27;;
75847;SDS011;65750;47.540;19.090;2023-06-10T12:03:38;14.25;;;9.00;;
75847;SDS011;65750;47.540;19.090;2023-06-10T12:06:05;12.60;;;9.45;;
75847;SDS011;65750;47.540;19.090;2023-06-10T12:08:33;12.15;;;9.07;;
75847;SDS011;65750;47.540;19.090;2023-06-10T12:11:00;13.43;;;9.65;;
75847;SDS011;65750;47.540;19.090;2023-06-10T12:13:28;12.40;;;8.87;;
75847;SDS011;65750;47.540;19.090;2023-06-10T12:16:05;11.95;;;8.98;;
75847;SDS011;65750;47.540;19.090;2023-06-10T12:18:33;12.75;;;8.93;;
75847;SDS011;65750;47.540;19.090;2023-06-10T12:21:00;13.10;;;9.75;;
75847;SDS011;65750;47.540;19.090;2023-06-10T12:23:29;12.10;;;8.93;;
75847;SDS011;65750;47.540;19.090;2023-06-10T12:25:57;11.33;;;9.00;;
75847;SDS011;65750;47.540;19.090;2023-06-10T12:28:24;13.90;;;9.18;;
75847;SDS011;65750;47.540;19.090;2023-06-10T12:30:59;12.30;;;9.02;;
75847;SDS011;65750;47.540;19.090;2023-06-10T12:33:33;12.25;;;8.77;;
75847;SDS011;65750;47.540;19.090;2023-06-10T12:36:00;12.68;;;8.88;;
75847;SDS011;65750;47.540;19.090;2023-06-10T12:38:27;11.57;;;8.23;;
75847;SDS011;65750;47.540;19.090;2023-06-10T12:40:57;12.13;;;9.15;;
75847;SDS011;65750;47.540;19.090;2023-06-10T12:43:27;9.88;;;8.02;;
75847;SDS011;65750;47.540;19.090;2023-06-10T12:45:55;10.48;;;8.13;;
75847;SDS011;65750;47.540;19.090;2023-06-10T12:48:23;10.77;;;8.60;;
75847;SDS011;65750;47.540;19.090;2023-06-10T12:50:51;12.33;;;8.50;;
75847;SDS011;65750;47.540;19.090;2023-06-10T12:53:19;11.02;;;8.45;;
75847;SDS011;65750;47.540;19.090;2023-06-10T12:55:48;11.05;;;7.85;;
75847;SDS011;65750;47.540;19.090;2023-06-10T12:58:16;11.20;;;8.82;;
75847;SDS011;65750;47.540;19.090;2023-06-10T13:00:44;10.75;;;8.10;;
75847;SDS011;65750;47.540;19.090;2023-06-10T13:03:11;9.83;;;8.03;;
75847;SDS011;65750;47.540;19.090;2023-06-10T13:05:39;11.68;;;8.00;;
75847;SDS011;65750;47.540;19.090;2023-06-10T13:08:07;9.68;;;7.72;;
75847;SDS011;65750;47.540;19.090;2023-06-10T13:10:35;10.15;;;7.97;;
75847;SDS011;65750;47.540;19.090;2023-06-10T13:13:03;9.27;;;7.25;;
75847;SDS011;65750;47.540;19.090;2023-06-10T13:15:31;10.33;;;7.70;;
75847;SDS011;65750;47.540;19.090;2023-06-10T13:18:01;11.10;;;8.80;;
75847;SDS011;65750;47.540;19.090;2023-06-10T13:20:29;9.93;;;7.82;;
75847;SDS011;65750;47.540;19.090;2023-06-10T13:22:58;9.30;;;7.87;;
75847;SDS011;65750;47.540;19.090;2023-06-10T13:25:25;10.48;;;8.02;;
75847;SDS011;65750;47.540;19.090;2023-06-10T13:27:52;10.83;;;8.30;;
75847;SDS011;65750;47.540;19.090;2023-06-10T13:30:20;10.20;;;7.68;;
75847;SDS011;65750;47.540;19.090;2023-06-10T13:32:47;9.50;;;7.90;;
75847;SDS011;65750;47.540;19.090;2023-06-10T13:35:14;11.15;;;7.47;;
75847;SDS011;65750;47.540;19.090;2023-06-10T13:37:41;9.50;;;7.80;;
75847;SDS011;65750;47.540;19.090;2023-06-10T13:40:11;9.30;;;7.57;;
75847;SDS011;65750;47.540;19.090;2023-06-10T13:42:38;10.30;;;7.70;;
75847;SDS011;65750;47.540;19.090;2023-06-10T13:45:06;9.35;;;7.70;;
75847;SDS011;65750;47.540;19.090;2023-06-10T13:47:34;9.23;;;7.70;;
75847;SDS011;65750;47.540;19.090;2023-06-10T13:50:01;10.43;;;7.87;;
75847;SDS011;65750;47.540;19.090;2023-06-10T13:52:29;8.83;;;7.20;;
75847;SDS011;65750;47.540;19.090;2023-06-10T13:54:56;9.63;;;7.78;;
75847;SDS011;65750;47.540;19.090;2023-06-10T13:57:25;10.23;;;7.75;;
75847;SDS011;65750;47.540;19.090;2023-06-10T13:59:52;11.10;;;8.07;;
75847;SDS011;65750;47.540;19.090;2023-06-10T14:02:21;9.13;;;7.47;;
75847;SDS011;65750;47.540;19.090;2023-06-10T14:04:48;8.20;;;7.10;;
75847;SDS011;65750;47.540;19.090;2023-06-10T14:07:15;8.85;;;7.30;;
75847;SDS011;65750;47.540;19.090;2023-06-10T14:09:42;9.38;;;7.40;;
75847;SDS011;65750;47.540;19.090;2023-06-10T14:12:11;8.32;;;6.85;;
75847;SDS011;65750;47.540;19.090;2023-06-10T14:14:39;8.38;;;6.80;;
75847;SDS011;65750;47.540;19.090;2023-06-10T14:17:07;9.43;;;7.13;;
75847;SDS011;65750;47.540;19.090;2023-06-10T14:19:35;8.13;;;6.97;;
75847;SDS011;65750;47.540;19.090;2023-06-10T14:22:02;9.13;;;7.12;;
75847;SDS011;65750;47.540;19.090;2023-06-10T14:24:30;8.32;;;7.10;;
75847;SDS011;65750;47.540;19.090;2023-06-10T14:26:57;8.73;;;7.20;;
75847;SDS011;65750;47.540;19.090;2023-06-10T14:29:25;9.60;;;7.47;;
75847;SDS011;65750;47.540;19.090;2023-06-10T14:31:55;8.60;;;7.05;;
75847;SDS011;65750;47.540;19.090;2023-06-10T14:34:23;7.97;;;6.75;;
75847;SDS011;65750;47.540;19.090;2023-06-10T14:36:54;8.80;;;7.15;;
75847;SDS011;65750;47.540;19.090;2023-06-10T14:39:21;8.80;;;7.15;;